X  Sluiten METAR luchtvaart weer gegevens      EHWO Woensdrecht Air Base
Temperatuur
9°C Temperatuur
8°C Dauwpunt
94% Vochtigheid



Wind
8 KM/U
5 MPH
2 M/S
4 KTS



210°
ZZW
Huidig weer

Grotendeels bewolkt Grotendeels bewolkt
Luchtdruk 996.92 (hPa) - 29.44 (inHg)
Zicht 6.2 (mijl) - 10 (km)
Vliegveld
Vliegveld code EHWO

Locatie : Woensdrecht Air Base
Afstand: 32 (km)

Metar:
EHWO 272055Z AUTO 21004KT 9999 BKN030 BKN035 BKN055 09/08 Q0997 BLU

Tijd: 27-09-2022 22:55 CEST